Jupiter Spirit — A8ZC2 — position and weather

sailwx.info

Track history (hours):
 
Tides and Currents Weather Stations Pressure Air Temp Water Temp Dewpoint Dewpoint Depression Visibility Wind Speed Wind Dir Waves Ship Positions

Jupiter Spirit

Last reported at 2015-May-08 20:12 UTC. Time now 2015-May-30 10:27 UTC.
Position N 30°48' E 032°19'.
Warning: this ship's position is 21 days out of date.

Length 183 m; draft 8.7 m.

Type: Cargo ship. MMSI: 636015173.

Date/timePositionNaut miles runAvg speedWind from/ knotsBaromVisibWave heightAir tempDewpointWater temp
2015-May-08 20:12N 30°48' E 032°19'23 8.5
2015-May-08 17:31N 31°11' E 032°18'6 6.7
2015-May-08 16:33N 31°17' E 032°20'6 5.6
2015-May-08 15:33N 31°23' E 032°21'0 0.2
2015-May-08 13:18N 31°23' E 032°21'14 2.4
2015-May-08 07:24N 31°34' E 032°10'1214.1
2015-May-08 06:33N 31°42' E 032°00'1414.1
2015-May-08 05:33N 31°48' E 031°45'1414.3
2015-May-08 04:33N 31°53' E 031°29'1413.9
2015-May-08 03:32N 31°57' E 031°14'1914.4
2015-May-08 02:12N 32°03' E 030°52'1215.1
2015-May-08 01:24N 32°06' E 030°38'69014.3
2015-May-06 01:17N 35°37' E 017°27'6714.2
2015-May-05 20:33N 35°57' E 016°09'1414.5
2015-May-05 19:33N 36°01' E 015°52'2914.7
2015-May-05 17:33N 36°10' E 015°17'1414.4
2015-May-05 16:33N 36°15' E 015°00'1414.3
2015-May-05 15:33N 36°21' E 014°44'1414.0
2015-May-05 14:34N 36°23' E 014°27'1414.1
2015-May-05 13:34N 36°28' E 014°10'1414.4
2015-May-05 12:34N 36°32' E 013°53'1414.3
2015-May-05 11:33N 36°36' E 013°36'1414.2
2015-May-05 10:33N 36°41' E 013°19'1413.9
2015-May-05 09:33N 36°45' E 013°02'1413.7
2015-May-05 08:33N 36°49' E 012°46'1413.6
2015-May-05 07:33N 36°53' E 012°30'1414.5
2015-May-05 06:33N 36°58' E 012°13'1514.8
2015-May-05 05:33N 37°03' E 011°55'1313.4
2015-May-05 04:33N 37°10' E 011°40'1312.7
2015-May-05 03:30N 37°16' E 011°26'1212.8
2015-May-05 02:33N 37°21' E 011°12'1313.4
2015-May-05 01:33N 37°25' E 010°56'1413.4
2015-May-05 00:33N 37°29' E 010°40'1914.7
2015-May-04 23:17N 37°35' E 010°17'1114.6
2015-May-04 22:33N 37°34' E 010°04'7213.5
2015-May-04 17:13N 37°17' E 008°36'18114.3
2015-May-04 04:31N 37°00' E 004°49'19014.4
2015-May-03 15:22N 36°35' E 000°55'1214.5
2015-May-03 14:33N 36°31' E 000°41'1514.7
2015-May-03 13:33N 36°25' E 000°24'4914.6
2015-May-03 10:10N 36°08' W 000°33'914.1
2015-May-03 09:33N 36°08' W 000°44'1714.3
2015-May-03 08:22N 36°07' W 001°05'1114.2
2015-May-03 07:34N 36°07' W 001°19'1716.7
2015-May-03 06:31N 36°06' W 001°41'1313.9
2015-May-03 05:34N 36°06' W 001°57'1615.5
2015-May-03 04:30N 36°05' W 002°17'1515.8
2015-May-03 03:33N 36°05' W 002°36'12615.5
2015-May-02 19:27N 36°00' W 005°11'1314.7
2015-May-02 18:34N 35°58' W 005°27'7814.8
2015-May-02 13:16N 36°05' W 007°03'1114.4
2015-May-02 12:30N 36°08' W 007°17'1814.5
2015-May-02 11:14N 36°13' W 007°39'1414.4
2015-May-02 10:15N 36°17' W 007°55'1014.5
2015-May-02 09:32N 36°19' W 008°08'1414.4
2015-May-02 08:34N 36°23' W 008°25'1615.6
2015-May-02 07:33N 36°27' W 008°43'1515.5
2015-May-02 06:34N 36°31' W 009°02'1413.9
2015-May-02 05:33N 36°35' W 009°19'1414.5
2015-May-02 04:33N 36°45' W 009°31'1514.7
2015-May-02 03:33N 36°59' W 009°37'1515.2
2015-May-02 02:33N 37°14' W 009°41'1515.3
2015-May-02 01:33N 37°29' W 009°46'1515.3
2015-May-02 00:33N 37°44' W 009°50'1515.3
2015-May-01 23:33N 37°59' W 009°54'1515.2
2015-May-01 22:33N 38°13' W 009°59'1515.3
2015-May-01 21:33N 38°28' W 010°03'1514.9
2015-May-01 20:33N 38°43' W 010°07'1515.4
2015-May-01 19:33N 38°58' W 010°07'1515.2
2015-May-01 18:33N 39°14' W 010°07'71514.0
2015-Apr-29 15:34N 50°10' W 003°30'1413.7
2015-Apr-29 14:34N 50°24' W 003°25'1212.1
2015-Apr-29 13:33N 50°26' W 003°06'1616.3
2015-Apr-29 12:33N 50°27' W 002°41'1717.3
2015-Apr-29 11:33N 50°28' W 002°14'1817.8
2015-Apr-29 10:33N 50°28' W 001°45'1817.3
2015-Apr-29 09:32N 50°29' W 001°18'1716.8
2015-Apr-29 08:33N 50°30' W 000°52'4414.8
2015-Apr-29 05:33N 50°36' E 000°17'1414.0
2015-Apr-29 04:33N 50°41' E 000°38'1515.0
2015-Apr-29 03:33N 50°49' E 000°58'1615.9
2015-Apr-29 02:33N 50°59' E 001°18'1616.0
2015-Apr-29 01:34N 51°09' E 001°37'1515.0
2015-Apr-29 00:34N 51°21' E 001°52'1414.2
2015-Apr-28 23:33N 51°32' E 002°05'1514.6
2015-Apr-28 22:32N 51°44' E 002°21'  
Track history (hours):
 
Tides and Currents Weather Stations Pressure Air Temp Water Temp Dewpoint Dewpoint Depression Visibility Wind Speed Wind Dir Waves Ship Positions

Jupiter Spirit

Last reported at 2015-May-08 20:12 UTC. Time now 2015-May-30 10:27 UTC.
Position N 30°48' E 032°19'.
Warning: this ship's position is 21 days out of date.

Length 183 m; draft 8.7 m.

Type: Cargo ship. MMSI: 636015173.

Date/timePositionNaut miles runAvg speedWind from/ knotsBaromVisibWave heightAir tempDewpointWater temp
2015-May-08 20:12N 30°48' E 032°19'23 8.5
2015-May-08 17:31N 31°11' E 032°18'6 6.7
2015-May-08 16:33N 31°17' E 032°20'6 5.6
2015-May-08 15:33N 31°23' E 032°21'0 0.2
2015-May-08 13:18N 31°23' E 032°21'14 2.4
2015-May-08 07:24N 31°34' E 032°10'1214.1
2015-May-08 06:33N 31°42' E 032°00'1414.1
2015-May-08 05:33N 31°48' E 031°45'1414.3
2015-May-08 04:33N 31°53' E 031°29'1413.9
2015-May-08 03:32N 31°57' E 031°14'1914.4
2015-May-08 02:12N 32°03' E 030°52'1215.1
2015-May-08 01:24N 32°06' E 030°38'69014.3
2015-May-06 01:17N 35°37' E 017°27'6714.2
2015-May-05 20:33N 35°57' E 016°09'1414.5
2015-May-05 19:33N 36°01' E 015°52'2914.7
2015-May-05 17:33N 36°10' E 015°17'1414.4
2015-May-05 16:33N 36°15' E 015°00'1414.3
2015-May-05 15:33N 36°21' E 014°44'1414.0
2015-May-05 14:34N 36°23' E 014°27'1414.1
2015-May-05 13:34N 36°28' E 014°10'1414.4
2015-May-05 12:34N 36°32' E 013°53'1414.3
2015-May-05 11:33N 36°36' E 013°36'1414.2
2015-May-05 10:33N 36°41' E 013°19'1413.9
2015-May-05 09:33N 36°45' E 013°02'1413.7
2015-May-05 08:33N 36°49' E 012°46'1413.6
2015-May-05 07:33N 36°53' E 012°30'1414.5
2015-May-05 06:33N 36°58' E 012°13'1514.8
2015-May-05 05:33N 37°03' E 011°55'1313.4
2015-May-05 04:33N 37°10' E 011°40'1312.7
2015-May-05 03:30N 37°16' E 011°26'1212.8
2015-May-05 02:33N 37°21' E 011°12'1313.4
2015-May-05 01:33N 37°25' E 010°56'1413.4
2015-May-05 00:33N 37°29' E 010°40'1914.7
2015-May-04 23:17N 37°35' E 010°17'1114.6
2015-May-04 22:33N 37°34' E 010°04'7213.5
2015-May-04 17:13N 37°17' E 008°36'18114.3
2015-May-04 04:31N 37°00' E 004°49'19014.4
2015-May-03 15:22N 36°35' E 000°55'1214.5
2015-May-03 14:33N 36°31' E 000°41'1514.7
2015-May-03 13:33N 36°25' E 000°24'4914.6
2015-May-03 10:10N 36°08' W 000°33'914.1
2015-May-03 09:33N 36°08' W 000°44'1714.3
2015-May-03 08:22N 36°07' W 001°05'1114.2
2015-May-03 07:34N 36°07' W 001°19'1716.7
2015-May-03 06:31N 36°06' W 001°41'1313.9
2015-May-03 05:34N 36°06' W 001°57'1615.5
2015-May-03 04:30N 36°05' W 002°17'1515.8
2015-May-03 03:33N 36°05' W 002°36'12615.5
2015-May-02 19:27N 36°00' W 005°11'1314.7
2015-May-02 18:34N 35°58' W 005°27'7814.8
2015-May-02 13:16N 36°05' W 007°03'1114.4
2015-May-02 12:30N 36°08' W 007°17'1814.5
2015-May-02 11:14N 36°13' W 007°39'1414.4
2015-May-02 10:15N 36°17' W 007°55'1014.5
2015-May-02 09:32N 36°19' W 008°08'1414.4
2015-May-02 08:34N 36°23' W 008°25'1615.6
2015-May-02 07:33N 36°27' W 008°43'1515.5
2015-May-02 06:34N 36°31' W 009°02'1413.9
2015-May-02 05:33N 36°35' W 009°19'1414.5
2015-May-02 04:33N 36°45' W 009°31'1514.7
2015-May-02 03:33N 36°59' W 009°37'1515.2
2015-May-02 02:33N 37°14' W 009°41'1515.3
2015-May-02 01:33N 37°29' W 009°46'1515.3
2015-May-02 00:33N 37°44' W 009°50'1515.3
2015-May-01 23:33N 37°59' W 009°54'1515.2
2015-May-01 22:33N 38°13' W 009°59'1515.3
2015-May-01 21:33N 38°28' W 010°03'1514.9
2015-May-01 20:33N 38°43' W 010°07'1515.4
2015-May-01 19:33N 38°58' W 010°07'1515.2
2015-May-01 18:33N 39°14' W 010°07'71514.0
2015-Apr-29 15:34N 50°10' W 003°30'1413.7
2015-Apr-29 14:34N 50°24' W 003°25'1212.1
2015-Apr-29 13:33N 50°26' W 003°06'1616.3
2015-Apr-29 12:33N 50°27' W 002°41'1717.3
2015-Apr-29 11:33N 50°28' W 002°14'1817.8
2015-Apr-29 10:33N 50°28' W 001°45'1817.3
2015-Apr-29 09:32N 50°29' W 001°18'1716.8
2015-Apr-29 08:33N 50°30' W 000°52'4414.8
2015-Apr-29 05:33N 50°36' E 000°17'1414.0
2015-Apr-29 04:33N 50°41' E 000°38'1515.0
2015-Apr-29 03:33N 50°49' E 000°58'1615.9
2015-Apr-29 02:33N 50°59' E 001°18'1616.0
2015-Apr-29 01:34N 51°09' E 001°37'1515.0
2015-Apr-29 00:34N 51°21' E 001°52'1414.2
2015-Apr-28 23:33N 51°32' E 002°05'1514.6
2015-Apr-28 22:32N 51°44' E 002°21'  

Dump ship's entire track history